Terminal Aerodrome Forecast
Issued by NWS

Home | Current Version | Previous Version | Text Only | Print | Product List | Glossary On
Versions: 1 2 3 4 5 6 7 8 9 10 11 12 13 14 15 16 17 18 19 20 21 22 23 24 25 26 27 28 29 30 31 32 33 34 35 36 37 38 39 40 41 42 43
000
FTPA31 PHFO 011200 AAA
TAFLIH
TAF AMD
PHLI 011209Z 0112/0212 01010KT P6SM -SHRA BKN025
     FM011800 01010KT P6SM VCSH SCT025 BKN040
     FM020000 01015KT P6SM SCT040 BKN120
     FM020600 01008KT P6SM SCT040 BKN120=

USA.gov is the U.S. government's official web portal to all federal, state and local government web resources and services.